Time;durP1;ratioP1;P1;durP2;ratioP2;P2;SDS_P1;SDS_P2;PMS_P1;PMS_P2;Temp;Humidity;BMP_temperature;BMP_pressure;BME280_temperature;BME280_humidity;BME280_pressure;Samples;Min_cycle;Max_cycle;Signal;HPM_P1;HPM_P2
2021/06/27 00:01:47;;;;;;;;;;;;;;;25.16;37.78;100376.78;5096640;28;743;-27
2021/06/27 00:04:14;;;;;;;;;;;;;;;25.15;37.68;100364.34;5096000;28;1014;-28
2021/06/27 00:06:39;;;;;;;;;;;;;;;25.10;38.08;100355.97;5096205;28;755;-32
2021/06/27 00:09:05;;;;;;;;;;;;;;;25.18;38.41;100350.53;5096445;28;799;-27
2021/06/27 00:11:30;;;;;;;;;;;;;;;25.33;38.66;100352.44;5095653;28;839;-28
2021/06/27 00:13:55;;;;;;;;;;;;;;;25.24;38.25;100348.16;5096264;28;810;-28
2021/06/27 00:16:21;;;;;;;;;;;;;;;25.15;38.00;100356.28;5096492;28;1906;-28
2021/06/27 00:18:46;;;;;;;;;;;;;;;25.15;38.24;100360.81;5097737;28;1001;-26
2021/06/27 00:21:11;;;;;;;;;;;;;;;25.15;37.71;100363.50;5100096;28;766;-27
2021/06/27 00:23:38;;;;;;;;;;;;;;;25.11;37.95;100362.22;5100057;28;1306;-29
2021/06/27 00:26:03;;;;;;;;;;;;;;;25.10;38.01;100352.44;5099692;28;732;-26
2021/06/27 00:28:29;;;;;;;;;;;;;;;25.11;37.92;100368.41;5100025;28;866;-27
2021/06/27 00:30:54;;;;;;;;;;;;;;;25.11;38.12;100370.28;5099915;28;819;-27
2021/06/27 00:33:20;;;;;;;;;;;;;;;25.15;38.18;100376.97;5099170;28;958;-26
2021/06/27 00:35:45;;;;;;;;;;;;;;;25.31;38.66;100368.78;5099430;28;1918;-27
2021/06/27 00:38:10;;;;;;;;;;;;;;;25.31;38.15;100365.22;5081413;28;1033;-29
2021/06/27 00:40:36;;;;;;;;;;;;;;;25.25;37.94;100347.97;5099343;28;771;-27
2021/06/27 00:43:01;;;;;;;;;;;;;;;25.17;37.99;100340.78;5099641;28;760;-28
2021/06/27 00:45:27;;;;;;;;;;;;;;;25.15;37.74;100339.28;5099462;28;783;-27
2021/06/27 00:47:52;;;;;;;;;;;;;;;25.19;37.62;100346.81;5080807;28;1204;-30
2021/06/27 00:50:21;;;;;;;;;;;;;;;25.13;37.82;100339.47;5099411;28;1006;-30
2021/06/27 00:52:47;;;;;;;;;;;;;;;25.12;37.59;100339.66;5099237;28;831;-28
2021/06/27 00:55:12;;;;;;;;;;;;;;;25.09;37.55;100340.00;5098980;28;1909;-28
2021/06/27 00:57:38;;;;;;;;;;;;;;;25.04;37.59;100348.63;5099205;28;839;-30
2021/06/27 01:00:07;;;;;;;;;;;;;;;25.06;37.52;100354.66;5099503;28;788;-28
2021/06/27 01:02:32;;;;;;;;;;;;;;;25.07;37.27;100348.28;5099225;28;755;-28
2021/06/27 01:04:57;;;;;;;;;;;;;;;25.02;37.53;100340.75;5080949;28;1014;-30
2021/06/27 01:07:23;;;;;;;;;;;;;;;25.08;37.53;100344.53;5099118;28;847;-30
2021/06/27 01:09:48;;;;;;;;;;;;;;;25.26;37.64;100335.31;5099124;28;775;-31
2021/06/27 01:12:13;;;;;;;;;;;;;;;25.27;37.59;100339.72;5098985;28;875;-27
2021/06/27 01:14:38;;;;;;;;;;;;;;;25.15;37.54;100317.75;5080782;28;1971;-28
2021/06/27 01:17:04;;;;;;;;;;;;;;;25.04;37.49;100314.47;5098750;28;763;-29
2021/06/27 01:19:32;;;;;;;;;;;;;;;25.05;37.16;100304.53;5099020;28;978;-29
2021/06/27 01:21:58;;;;;;;;;;;;;;;25.05;37.17;100302.69;5098561;28;1143;-28
2021/06/27 01:24:24;;;;;;;;;;;;;;;25.03;37.30;100299.34;5098599;28;811;-28
2021/06/27 01:26:49;;;;;;;;;;;;;;;25.04;37.55;100298.31;5098792;28;806;-28
2021/06/27 01:29:15;;;;;;;;;;;;;;;25.12;37.86;100313.59;5098782;28;783;-30
2021/06/27 01:31:41;;;;;;;;;;;;;;;25.25;38.35;100321.03;5098445;28;771;-27
2021/06/27 01:34:06;;;;;;;;;;;;;;;25.39;38.41;100337.44;5079797;28;975;-29
2021/06/27 01:36:31;;;;;;;;;;;;;;;25.47;38.48;100342.75;5080572;28;1902;-28
2021/06/27 01:38:56;;;;;;;;;;;;;;;25.52;38.75;100352.97;5098354;28;854;-28
2021/06/27 01:41:22;;;;;;;;;;;;;;;25.60;38.69;100355.59;5098409;28;740;-27
2021/06/27 01:43:47;;;;;;;;;;;;;;;25.50;38.98;100355.84;5098455;28;775;-28
2021/06/27 01:46:12;;;;;;;;;;;;;;;25.39;38.18;100356.28;5098076;28;748;-26
2021/06/27 01:48:37;;;;;;;;;;;;;;;25.28;38.56;100358.38;5098135;28;990;-27
2021/06/27 01:51:04;;;;;;;;;;;;;;;25.29;38.58;100361.91;5098486;28;795;-27
2021/06/27 01:53:30;;;;;;;;;;;;;;;25.31;38.59;100349.09;5098226;28;759;-29
2021/06/27 01:56:05;;;;;;;;;;;;;;;25.25;38.50;100358.72;5098305;28;1898;-29
2021/06/27 01:58:31;;;;;;;;;;;;;;;25.23;38.47;100352.69;5098288;28;862;-27
2021/06/27 02:00:57;;;;;;;;;;;;;;;25.25;38.44;100356.03;5097750;28;897;-26
2021/06/27 02:03:22;;;;;;;;;;;;;;;25.28;38.65;100357.53;5097802;28;1014;-26
2021/06/27 02:05:47;;;;;;;;;;;;;;;25.24;38.69;100350.84;5098313;28;803;-26
2021/06/27 02:08:13;;;;;;;;;;;;;;;25.25;38.72;100350.66;5098249;28;768;-28
2021/06/27 02:10:38;;;;;;;;;;;;;;;25.25;38.82;100350.66;5098025;28;718;-27
2021/06/27 02:13:03;;;;;;;;;;;;;;;25.24;38.93;100342.75;5097904;28;862;-29
2021/06/27 02:15:28;;;;;;;;;;;;;;;25.26;38.79;100344.25;5097671;28;1898;-30
2021/06/27 02:18:12;;;;;;;;;;;;;;;25.23;38.94;100339.22;5097634;28;763;-26
2021/06/27 02:20:37;;;;;;;;;;;;;;;25.24;39.17;100337.38;5059537;28;1524;-27
2021/06/27 02:23:03;;;;;;;;;;;;;;;25.23;39.23;100346.44;5076663;28;1246;-26
2021/06/27 02:25:29;;;;;;;;;;;;;;;25.21;39.15;100349.31;5077193;28;740;-26
2021/06/27 02:27:54;;;;;;;;;;;;;;;25.20;39.11;100350.34;5077361;28;771;-30
2021/06/27 02:30:20;;;;;;;;;;;;;;;25.23;39.16;100355.38;5077553;28;779;-27
2021/06/27 02:32:45;;;;;;;;;;;;;;;25.22;39.07;100369.00;5077013;28;800;-29
2021/06/27 02:35:10;;;;;;;;;;;;;;;25.24;39.01;100367.00;5093217;28;1906;-28
2021/06/27 02:37:36;;;;;;;;;;;;;;;25.18;39.09;100382.84;5097741;28;740;-27
2021/06/27 02:40:01;;;;;;;;;;;;;;;25.17;39.08;100383.84;5097203;28;776;-29
2021/06/27 02:42:27;;;;;;;;;;;;;;;25.11;39.15;100392.63;5096832;28;771;-27
2021/06/27 02:44:52;;;;;;;;;;;;;;;25.08;39.12;100395.69;5097195;28;856;-28
2021/06/27 02:47:17;;;;;;;;;;;;;;;25.10;38.87;100400.88;5097382;28;795;-31
2021/06/27 02:49:43;;;;;;;;;;;;;;;25.11;38.52;100398.00;5097007;28;942;-27
2021/06/27 02:52:08;;;;;;;;;;;;;;;25.11;38.60;100406.09;5097328;28;743;-29
2021/06/27 02:54:34;;;;;;;;;;;;;;;25.12;38.57;100407.78;5096730;28;1901;-28
2021/06/27 02:56:59;;;;;;;;;;;;;;;25.10;38.52;100403.56;5097079;28;755;-26
2021/06/27 02:59:24;;;;;;;;;;;;;;;25.16;38.17;100414.47;5097251;28;839;-27
2021/06/27 03:01:49;;;;;;;;;;;;;;;25.18;38.49;100408.91;5096671;28;790;-29
2021/06/27 03:04:15;;;;;;;;;;;;;;;25.13;38.55;100416.66;5096692;28;1003;-28
2021/06/27 03:06:40;;;;;;;;;;;;;;;25.13;38.54;100413.97;5096680;28;855;-28
2021/06/27 03:09:05;;;;;;;;;;;;;;;25.21;38.46;100418.50;5096852;28;909;-29
2021/06/27 03:11:30;;;;;;;;;;;;;;;25.06;41.06;100408.47;5097039;28;867;-31
2021/06/27 03:13:56;;;;;;;;;;;;;;;24.54;44.97;100418.78;5092233;28;1028;-31
2021/06/27 03:16:21;;;;;;;;;;;;;;;24.31;46.96;100414.13;5101545;28;1909;-31
2021/06/27 03:18:47;;;;;;;;;;;;;;;24.39;47.13;100411.44;5117237;28;791;-31
2021/06/27 03:21:12;;;;;;;;;;;;;;;24.44;46.98;100401.00;5103894;28;1186;-32
2021/06/27 03:23:38;;;;;;;;;;;;;;;24.41;46.37;100403.19;5096607;28;1051;-29
2021/06/27 03:26:03;;;;;;;;;;;;;;;24.45;46.06;100397.31;5073276;28;1225;-29
2021/06/27 03:28:33;;;;;;;;;;;;;;;24.60;46.09;100398.41;5086754;28;874;-32
2021/06/27 03:30:58;;;;;;;;;;;;;;;24.76;44.16;100402.88;5096665;28;950;-33
2021/06/27 03:33:23;;;;;;;;;;;;;;;25.03;41.30;100411.53;5096801;28;803;-34
2021/06/27 03:35:48;;;;;;;;;;;;;;;24.56;44.33;100417.59;5096193;28;1976;-32
2021/06/27 03:40:41;;;;;;;;;;;;;;;23.88;50.60;100406.28;5096968;28;750;-33
2021/06/27 03:43:06;;;;;;;;;;;;;;;24.59;49.97;100402.94;5079045;28;833;-31
2021/06/27 03:45:31;;;;;;;;;;;;;;;25.07;46.86;100400.22;5095625;28;958;-28
2021/06/27 03:47:57;;;;;;;;;;;;;;;25.34;44.21;100416.03;5096721;28;1150;-30
2021/06/27 03:50:22;;;;;;;;;;;;;;;25.42;43.65;100399.81;5096234;28;755;-28
2021/06/27 03:52:47;;;;;;;;;;;;;;;25.40;43.53;100422.56;5096554;28;795;-30
2021/06/27 03:55:13;;;;;;;;;;;;;;;25.48;42.83;100424.34;5100315;28;1902;-33
2021/06/27 03:57:38;;;;;;;;;;;;;;;25.47;43.57;100420.00;5100030;28;848;-28
2021/06/27 04:00:04;;;;;;;;;;;;;;;25.55;43.21;100418.09;5099790;28;1009;-29
2021/06/27 04:02:30;;;;;;;;;;;;;;;25.64;43.72;100418.84;5082113;28;1095;-46
2021/06/27 04:04:55;;;;;;;;;;;;;;;25.63;43.40;100416.34;5100244;28;748;-28
2021/06/27 04:07:20;;;;;;;;;;;;;;;25.60;44.24;100427.47;5099850;28;815;-26
2021/06/27 04:09:45;;;;;;;;;;;;;;;25.68;44.54;100417.50;5100073;28;779;-41
2021/06/27 04:12:11;;;;;;;;;;;;;;;25.64;44.64;100424.25;5100385;28;811;-28
2021/06/27 04:14:36;;;;;;;;;;;;;;;25.52;45.14;100429.22;5099462;28;1905;-42
2021/06/27 04:17:01;;;;;;;;;;;;;;;25.55;44.91;100411.84;5099784;28;747;-31
2021/06/27 04:19:27;;;;;;;;;;;;;;;25.53;43.81;100417.41;5100231;28;763;-27
2021/06/27 04:21:53;;;;;;;;;;;;;;;25.53;43.56;100417.41;5099584;28;1086;-29
2021/06/27 04:24:18;;;;;;;;;;;;;;;25.51;43.15;100411.38;5099491;28;823;-41
2021/06/27 04:26:44;;;;;;;;;;;;;;;25.44;43.04;100397.78;5099824;28;775;-33
2021/06/27 04:29:13;;;;;;;;;;;;;;;25.50;42.78;100408.84;5099482;28;1029;-40
2021/06/27 04:31:39;;;;;;;;;;;;;;;25.43;43.42;100417.66;5099446;28;839;-27
2021/06/27 04:34:04;;;;;;;;;;;;;;;25.40;43.58;100409.94;5100174;28;840;-40
2021/06/27 04:36:30;;;;;;;;;;;;;;;25.70;43.74;100417.31;5099223;28;1905;-28
2021/06/27 04:38:55;;;;;;;;;;;;;;;25.92;43.43;100417.47;5099683;28;744;-46
2021/06/27 04:41:20;;;;;;;;;;;;;;;26.02;44.14;100425.28;5100111;28;755;-36
2021/06/27 04:43:46;;;;;;;;;;;;;;;26.08;43.81;100429.94;5098967;28;998;-32
2021/06/27 04:46:11;;;;;;;;;;;;;;;26.15;43.77;100436.28;5099450;28;810;-38
2021/06/27 04:48:36;;;;;;;;;;;;;;;26.22;43.81;100444.47;5099576;28;886;-43
2021/06/27 04:51:02;;;;;;;;;;;;;;;26.29;43.40;100436.47;5099002;28;763;-29
2021/06/27 04:53:27;;;;;;;;;;;;;;;26.34;43.90;100434.06;5099559;28;910;-30
2021/06/27 04:55:52;;;;;;;;;;;;;;;26.36;43.83;100434.72;5099379;28;1897;-33
2021/06/27 04:58:18;;;;;;;;;;;;;;;26.36;43.59;100420.41;5098518;28;773;-33
2021/06/27 05:00:45;;;;;;;;;;;;;;;26.28;44.48;100432.94;5099442;28;946;-31
2021/06/27 05:03:10;;;;;;;;;;;;;;;26.36;44.16;100429.31;5099029;28;827;-29
2021/06/27 05:05:35;;;;;;;;;;;;;;;26.39;44.24;100425.44;5098250;28;795;-42
2021/06/27 05:08:00;;;;;;;;;;;;;;;26.47;44.29;100435.28;5099097;28;815;-28
2021/06/27 05:10:26;;;;;;;;;;;;;;;26.50;44.56;100435.75;5099097;28;862;-43
2021/06/27 05:12:51;;;;;;;;;;;;;;;26.54;44.37;100438.94;5099221;28;757;-35
2021/06/27 05:15:17;;;;;;;;;;;;;;;26.57;44.10;100437.69;5098673;28;1905;-35
2021/06/27 05:17:42;;;;;;;;;;;;;;;26.60;44.34;100448.13;5098940;28;798;-32
2021/06/27 05:20:07;;;;;;;;;;;;;;;26.63;44.65;100448.59;5098557;28;850;-39
2021/06/27 05:22:33;;;;;;;;;;;;;;;26.69;44.17;100446.16;5098418;28;1427;-28
2021/06/27 05:24:58;;;;;;;;;;;;;;;26.71;44.38;100453.03;5098476;28;838;-42
2021/06/27 05:27:24;;;;;;;;;;;;;;;26.76;44.56;100447.91;5098264;28;744;-29
2021/06/27 05:29:49;;;;;;;;;;;;;;;26.82;44.70;100457.13;5098689;28;970;-35
2021/06/27 05:32:14;;;;;;;;;;;;;;;26.81;44.77;100458.13;5098651;28;787;-34
2021/06/27 05:34:40;;;;;;;;;;;;;;;26.82;44.72;100462.53;5098199;28;1918;-35
2021/06/27 05:37:05;;;;;;;;;;;;;;;26.82;45.12;100461.69;5098631;28;809;-35
2021/06/27 05:39:30;;;;;;;;;;;;;;;26.87;45.02;100465.50;5098554;28;759;-34
2021/06/27 05:41:56;;;;;;;;;;;;;;;26.89;44.81;100457.22;5098412;28;815;-35
2021/06/27 05:44:21;;;;;;;;;;;;;;;26.94;44.86;100470.97;5098026;28;947;-35
2021/06/27 05:46:47;;;;;;;;;;;;;;;26.93;44.71;100463.91;5098577;28;795;-33
2021/06/27 05:49:12;;;;;;;;;;;;;;;26.99;45.15;100468.53;5098309;28;767;-34
2021/06/27 05:51:37;;;;;;;;;;;;;;;27.11;44.62;100468.91;5105595;28;1154;-34
2021/06/27 05:54:06;;;;;;;;;;;;;;;27.14;44.85;100475.81;5118888;28;834;-35
2021/06/27 05:56:31;;;;;;;;;;;;;;;27.12;44.38;100467.91;5117889;28;1898;-34
2021/06/27 05:58:56;;;;;;;;;;;;;;;27.17;44.39;100474.59;5115050;28;958;-33
2021/06/27 06:01:22;;;;;;;;;;;;;;;27.21;44.69;100481.28;5098015;28;815;-37
2021/06/27 06:03:47;;;;;;;;;;;;;;;27.26;44.59;100479.69;5098245;28;877;-35
2021/06/27 06:06:12;;;;;;;;;;;;;;;27.26;44.53;100489.63;5097705;28;756;-35
2021/06/27 06:08:41;;;;;;;;;;;;;;;27.26;44.57;100492.34;5098130;28;814;-34
2021/06/27 06:11:08;;;;;;;;;;;;;;;27.31;44.74;100503.41;5098165;28;810;-38
2021/06/27 06:13:33;;;;;;;;;;;;;;;27.36;44.92;100503.69;5097455;28;748;-36
2021/06/27 06:15:58;;;;;;;;;;;;;;;27.36;44.80;100505.56;5097339;28;1909;-36
2021/06/27 06:18:24;;;;;;;;;;;;;;;27.37;44.44;100505.38;5097790;28;863;-37
2021/06/27 06:20:49;;;;;;;;;;;;;;;27.37;44.99;100508.06;5097255;28;955;-36
2021/06/27 06:23:14;;;;;;;;;;;;;;;27.45;44.99;100506.25;5096980;28;1688;-39
2021/06/27 06:25:40;;;;;;;;;;;;;;;27.50;44.72;100510.06;5097650;28;890;-36
2021/06/27 06:28:05;;;;;;;;;;;;;;;27.48;44.48;100504.00;5097020;28;818;-33
2021/06/27 06:30:30;;;;;;;;;;;;;;;27.46;44.94;100514.16;5097601;28;998;-35
2021/06/27 06:32:55;;;;;;;;;;;;;;;27.52;45.08;100501.78;5079296;28;1262;-32
2021/06/27 06:35:21;;;;;;;;;;;;;;;27.46;44.94;100502.53;5096972;28;1976;-35
2021/06/27 06:37:46;;;;;;;;;;;;;;;27.47;45.05;100499.66;5097550;28;823;-34
2021/06/27 06:40:11;;;;;;;;;;;;;;;27.51;45.22;100492.81;5097260;28;807;-35
2021/06/27 06:42:37;;;;;;;;;;;;;;;27.55;45.12;100495.13;5096654;28;847;-36
2021/06/27 06:45:02;;;;;;;;;;;;;;;27.55;44.93;100492.44;5097347;28;998;-31
2021/06/27 06:47:28;;;;;;;;;;;;;;;27.57;44.75;100482.28;5097206;28;732;-35
2021/06/27 06:49:53;;;;;;;;;;;;;;;27.60;44.87;100485.44;5096574;28;761;-35
2021/06/27 06:52:18;;;;;;;;;;;;;;;27.61;44.63;100489.81;5097282;28;842;-36
2021/06/27 06:54:44;;;;;;;;;;;;;;;27.60;44.79;100490.84;5096527;28;2002;-35
2021/06/27 06:57:09;;;;;;;;;;;;;;;27.65;44.83;100498.38;5096724;28;910;-35
2021/06/27 06:59:34;;;;;;;;;;;;;;;27.59;45.02;100494.56;5078565;28;1309;-36
2021/06/27 07:02:00;;;;;;;;;;;;;;;27.59;45.27;100491.84;5096821;28;851;-36
2021/06/27 07:04:25;;;;;;;;;;;;;;;27.68;45.21;100495.31;5096288;28;851;-36
2021/06/27 07:06:50;;;;;;;;;;;;;;;27.67;45.14;100495.47;5097074;28;805;-35
2021/06/27 07:09:15;;;;;;;;;;;;;;;27.71;45.15;100494.09;5096639;28;882;-35
2021/06/27 07:11:41;;;;;;;;;;;;;;;27.73;45.15;100487.47;5096457;28;934;-31
2021/06/27 07:14:06;;;;;;;;;;;;;;;27.74;45.09;100497.22;5096713;28;959;-35
2021/06/27 07:16:34;;;;;;;;;;;;;;;27.71;45.34;100494.91;5096322;28;1967;-33
2021/06/27 07:19:00;;;;;;;;;;;;;;;27.72;45.35;100503.88;5096317;28;810;-34
2021/06/27 07:21:28;;;;;;;;;;;;;;;27.69;45.36;100494.28;5096700;28;803;-35
2021/06/27 07:23:54;;;;;;;;;;;;;;;27.63;45.74;100498.56;5096652;28;1330;-33
2021/06/27 07:26:19;;;;;;;;;;;;;;;27.68;45.73;100494.44;5096390;28;755;-30
2021/06/27 07:28:44;;;;;;;;;;;;;;;27.70;45.87;100492.41;5095988;28;974;-31
2021/06/27 07:31:09;;;;;;;;;;;;;;;27.69;45.95;100499.69;5096675;28;775;-32
2021/06/27 07:33:35;;;;;;;;;;;;;;;27.86;45.44;100496.72;5096175;28;728;-39
2021/06/27 07:36:00;;;;;;;;;;;;;;;27.87;45.13;100492.97;5096265;28;1971;-29
2021/06/27 07:38:25;;;;;;;;;;;;;;;27.89;45.37;100490.09;5096644;28;826;-38
2021/06/27 07:40:51;;;;;;;;;;;;;;;27.91;45.37;100490.72;5096017;28;846;-29
2021/06/27 07:43:16;;;;;;;;;;;;;;;27.98;45.16;100488.91;5078020;28;833;-40
2021/06/27 07:45:43;;;;;;;;;;;;;;;27.93;45.00;100484.09;5078019;28;1002;-26
2021/06/27 07:48:08;;;;;;;;;;;;;;;27.95;45.32;100490.16;5096067;28;836;-41
2021/06/27 07:50:33;;;;;;;;;;;;;;;27.95;45.06;100487.44;5096546;28;779;-40
2021/06/27 07:52:58;;;;;;;;;;;;;;;27.93;45.18;100496.75;5096553;28;847;-42
2021/06/27 07:55:24;;;;;;;;;;;;;;;27.93;45.52;100500.31;5095584;28;1906;-32
2021/06/27 07:57:52;;;;;;;;;;;;;;;27.98;45.58;100505.97;5095772;28;855;-42
2021/06/27 08:00:17;;;;;;;;;;;;;;;28.00;45.24;100500.38;5095801;28;994;-43
2021/06/27 08:02:43;;;;;;;;;;;;;;;27.97;45.08;100500.75;5077339;28;1100;-29
2021/06/27 08:05:08;;;;;;;;;;;;;;;27.99;45.25;100504.13;5096011;28;859;-29
2021/06/27 08:07:33;;;;;;;;;;;;;;;27.97;45.56;100508.88;5096627;28;843;-28
2021/06/27 08:09:59;;;;;;;;;;;;;;;27.97;45.42;100516.97;5095566;28;783;-32
2021/06/27 08:12:24;;;;;;;;;;;;;;;28.06;44.97;100509.56;5096325;28;732;-29
2021/06/27 08:14:49;;;;;;;;;;;;;;;28.07;45.23;100524.75;5095877;28;1962;-41
2021/06/27 08:17:15;;;;;;;;;;;;;;;28.07;45.22;100524.75;5095725;28;813;-30
2021/06/27 08:19:40;;;;;;;;;;;;;;;28.16;45.20;100522.75;5096122;28;871;-37
2021/06/27 08:22:05;;;;;;;;;;;;;;;28.19;45.10;100535.88;5095971;28;1261;-38
2021/06/27 08:24:31;;;;;;;;;;;;;;;28.23;44.92;100531.75;5095682;28;898;-29
2021/06/27 08:26:56;;;;;;;;;;;;;;;28.20;44.79;100529.44;5096134;28;842;-41
2021/06/27 08:29:21;;;;;;;;;;;;;;;28.17;44.83;100535.25;5095820;28;959;-26
2021/06/27 08:31:47;;;;;;;;;;;;;;;28.17;45.11;100530.69;5095442;28;871;-27
2021/06/27 08:34:12;;;;;;;;;;;;;;;27.58;45.25;100432.59;5096337;28;807;-29
2021/06/27 08:36:38;;;;;;;;;;;;;;;28.35;45.07;100529.38;5096134;28;1910;-29
2021/06/27 08:39:04;;;;;;;;;;;;;;;28.28;44.81;100534.69;5096538;28;821;-27
2021/06/27 08:41:29;;;;;;;;;;;;;;;28.34;44.74;100539.34;5099277;28;751;-40
2021/06/27 08:43:54;;;;;;;;;;;;;;;28.28;44.96;100533.88;5099373;28;954;-41
2021/06/27 08:46:20;;;;;;;;;;;;;;;28.24;45.28;100536.13;5081620;28;822;-41
2021/06/27 08:48:45;;;;;;;;;;;;;;;28.26;45.39;100534.06;5099342;28;807;-30
2021/06/27 08:51:10;;;;;;;;;;;;;;;28.34;45.05;100544.75;5099253;28;817;-29
2021/06/27 08:53:36;;;;;;;;;;;;;;;28.37;44.84;100535.44;5099624;28;764;-40
2021/06/27 08:56:05;;;;;;;;;;;;;;;28.39;44.47;100530.66;5098847;28;1962;-29
2021/06/27 08:58:36;;;;;;;;;;;;;;;28.36;44.47;100531.88;5099599;28;811;-27
2021/06/27 09:01:02;;;;;;;;;;;;;;;28.38;44.61;100526.28;5099182;28;746;-30
2021/06/27 09:03:27;;;;;;;;;;;;;;;28.42;44.92;100532.97;5097984;28;1417;-31
2021/06/27 09:05:53;;;;;;;;;;;;;;;28.62;44.60;100528.72;5080578;28;1273;-30
2021/06/27 09:08:19;;;;;;;;;;;;;;;28.52;44.65;100527.22;5078756;28;1364;-41
2021/06/27 09:10:44;;;;;;;;;;;;;;;28.50;44.85;100534.69;5078606;28;752;-31
2021/06/27 09:13:09;;;;;;;;;;;;;;;28.49;44.98;100527.63;5078597;28;870;-41
2021/06/27 09:15:38;;;;;;;;;;;;;;;28.46;44.69;100523.41;5095285;28;1910;-29
2021/06/27 09:18:04;;;;;;;;;;;;;;;28.47;44.82;100530.53;5098525;28;750;-32
2021/06/27 09:20:29;;;;;;;;;;;;;;;28.52;44.98;100520.97;5098885;28;810;-29
2021/06/27 09:22:56;;;;;;;;;;;;;;;28.56;44.75;100512.22;5080500;28;1540;-28
2021/06/27 09:25:21;;;;;;;;;;;;;;;28.65;44.52;100514.78;5098049;28;947;-32
2021/06/27 09:28:07;;;;;;;;;;;;;;;28.62;44.64;100516.03;5098872;28;765;-41
2021/06/27 09:30:34;;;;;;;;;;;;;;;28.76;44.45;100521.53;5097959;28;1011;-29
2021/06/27 09:33:09;;;;;;;;;;;;;;;28.70;44.34;100517.72;5098026;28;838;-31
2021/06/27 09:35:35;;;;;;;;;;;;;;;28.70;44.36;100520.44;5098933;28;1905;-41
2021/06/27 09:38:18;;;;;;;;;;;;;;;28.62;44.63;100521.44;5098690;28;783;-39
2021/06/27 09:40:43;;;;;;;;;;;;;;;28.60;44.32;100515.38;5098503;28;768;-30
2021/06/27 09:43:09;;;;;;;;;;;;;;;28.65;44.59;100517.50;5098748;28;763;-41
2021/06/27 09:45:44;;;;;;;;;;;;;;;28.67;44.34;100515.44;5097755;28;998;-31
2021/06/27 09:48:09;;;;;;;;;;;;;;;28.67;44.47;100516.28;5098149;28;830;-41
2021/06/27 09:50:35;;;;;;;;;;;;;;;28.75;44.40;100515.25;5097281;28;826;-27
2021/06/27 09:53:00;;;;;;;;;;;;;;;28.84;44.33;100507.81;5097953;28;887;-42
2021/06/27 09:55:25;;;;;;;;;;;;;;;28.79;44.09;100515.72;5079404;28;1974;-37
2021/06/27 09:58:05;;;;;;;;;;;;;;;28.83;44.34;100516.97;5098349;28;763;-28
2021/06/27 10:00:30;;;;;;;;;;;;;;;28.86;43.79;100519.28;5079676;28;1306;-27
2021/06/27 10:02:59;;;;;;;;;;;;;;;28.87;43.72;100518.25;5097795;28;795;-26
2021/06/27 10:05:24;;;;;;;;;;;;;;;28.86;43.88;100516.59;5098526;28;815;-27
2021/06/27 10:07:49;;;;;;;;;;;;;;;28.85;43.76;100520.31;5098060;28;822;-26
2021/06/27 10:10:21;;;;;;;;;;;;;;;28.85;43.41;100515.75;5079445;28;860;-28
2021/06/27 10:12:46;;;;;;;;;;;;;;;28.87;43.46;100520.94;5098020;28;778;-26
2021/06/27 10:15:14;;;;;;;;;;;;;;;28.84;43.68;100526.78;5097764;28;1967;-27
2021/06/27 10:17:39;;;;;;;;;;;;;;;28.81;43.56;100522.56;5097299;28;827;-31
2021/06/27 10:20:05;;;;;;;;;;;;;;;28.83;43.38;100522.38;5080142;28;787;-27
2021/06/27 10:22:33;;;;;;;;;;;;;;;28.84;43.64;100522.16;5097326;28;1026;-27
2021/06/27 10:24:58;;;;;;;;;;;;;;;28.84;43.87;100527.59;5079394;28;814;-30
2021/06/27 10:27:24;;;;;;;;;;;;;;;28.90;43.53;100508.88;5097725;28;815;-28
2021/06/27 10:29:49;;;;;;;;;;;;;;;28.93;43.16;100519.28;5097561;28;1029;-30
2021/06/27 10:32:16;;;;;;;;;;;;;;;28.94;42.92;100515.56;5097202;28;803;-29
2021/06/27 10:34:41;;;;;;;;;;;;;;;28.92;43.03;100521.19;5097376;28;1969;-37
2021/06/27 10:37:06;;;;;;;;;;;;;;;28.94;43.22;100523.69;5097374;28;787;-26
2021/06/27 10:39:32;;;;;;;;;;;;;;;28.94;43.32;100516.41;5097227;28;847;-31
2021/06/27 10:42:04;;;;;;;;;;;;;;;28.94;43.39;100521.84;5097551;28;838;-33
2021/06/27 10:44:49;;;;;;;;;;;;;;;28.92;43.60;100518.47;5097143;28;1005;-27
2021/06/27 10:47:35;;;;;;;;;;;;;;;28.90;43.30;100519.69;5082365;28;1849;-29
2021/06/27 10:50:03;;;;;;;;;;;;;;;28.92;43.03;100506.81;5096535;28;1596;-26
2021/06/27 10:52:29;;;;;;;;;;;;;;;28.93;42.79;100509.31;5096981;28;767;-29
2021/06/27 10:55:12;;;;;;;;;;;;;;;28.98;42.75;100513.34;5097158;28;1964;-30
2021/06/27 10:57:56;;;;;;;;;;;;;;;28.95;42.77;100504.53;5097232;28;756;-28
2021/06/27 11:00:22;;;;;;;;;;;;;;;28.97;42.75;100504.38;5096922;28;939;-29
2021/06/27 11:02:47;;;;;;;;;;;;;;;29.05;42.56;100514.19;5096467;28;794;-27
2021/06/27 11:05:28;;;;;;;;;;;;;;;29.01;42.48;100512.94;5096773;28;832;-27
2021/06/27 11:07:53;;;;;;;;;;;;;;;29.00;42.40;100506.66;5096736;28;846;-28
2021/06/27 11:10:19;;;;;;;;;;;;;;;29.01;42.36;100504.81;5097294;28;814;-28
2021/06/27 11:13:06;;;;;;;;;;;;;;;29.03;42.41;100500.84;5096630;28;847;-27
2021/06/27 11:15:32;;;;;;;;;;;;;;;29.04;42.40;100509.81;5096240;28;1905;-26
2021/06/27 11:18:00;;;;;;;;;;;;;;;29.13;41.99;100510.47;5096995;28;795;-26
2021/06/27 11:20:26;;;;;;;;;;;;;;;29.15;41.88;100511.09;5097013;28;826;-26
2021/06/27 11:22:53;;;;;;;;;;;;;;;29.15;42.10;100521.91;5096381;28;1346;-29
2021/06/27 11:25:37;;;;;;;;;;;;;;;29.11;42.18;100512.53;5097160;28;787;-26
2021/06/27 11:28:20;;;;;;;;;;;;;;;29.17;41.90;100519.84;5097191;28;767;-29
2021/06/27 11:30:46;;;;;;;;;;;;;;;29.09;41.97;100515.47;5095694;28;1539;-41
2021/06/27 11:33:14;;;;;;;;;;;;;;;29.13;41.79;100508.59;5096571;28;755;-27
2021/06/27 11:35:47;;;;;;;;;;;;;;;29.08;41.66;100506.50;5096209;28;1910;-28
2021/06/27 11:38:31;;;;;;;;;;;;;;;29.08;41.79;100514.63;5078276;28;799;-29
2021/06/27 11:40:56;;;;;;;;;;;;;;;29.09;41.82;100518.16;5096713;28;821;-30
2021/06/27 11:43:21;;;;;;;;;;;;;;;29.08;41.71;100514.63;5096290;28;842;-28
2021/06/27 11:45:47;;;;;;;;;;;;;;;29.09;41.79;100510.84;5077806;28;1295;-26
2021/06/27 11:48:12;;;;;;;;;;;;;;;29.13;41.68;100513.19;5096679;28;792;-30
2021/06/27 11:50:38;;;;;;;;;;;;;;;29.19;41.50;100515.94;5096411;28;787;-26
2021/06/27 11:53:03;;;;;;;;;;;;;;;29.22;41.66;100520.09;5078113;28;823;-29
2021/06/27 11:55:33;;;;;;;;;;;;;;;29.24;42.05;100509.03;5096195;28;1909;-40
2021/06/27 11:57:58;;;;;;;;;;;;;;;29.09;42.40;100513.56;5096341;28;787;-40
2021/06/27 12:00:33;;;;;;;;;;;;;;;29.10;43.26;100514.41;5096408;28;966;-31
2021/06/27 12:03:17;;;;;;;;;;;;;;;29.18;43.52;100514.22;5094332;28;749;-39
2021/06/27 12:05:53;;;;;;;;;;;;;;;29.09;44.14;100508.16;5076304;28;810;-34
2021/06/27 12:08:18;;;;;;;;;;;;;;;29.21;44.11;100513.81;5075665;28;783;-38
2021/06/27 12:10:44;;;;;;;;;;;;;;;29.24;44.63;100514.47;5075584;28;837;-29
2021/06/27 12:13:10;;;;;;;;;;;;;;;29.13;45.39;100514.00;5091719;28;799;-28
2021/06/27 12:15:35;;;;;;;;;;;;;;;29.16;45.35;100504.66;5095227;28;1910;-38
2021/06/27 12:18:20;;;;;;;;;;;;;;;29.23;45.95;100510.91;5100048;28;816;-29
2021/06/27 12:20:47;;;;;;;;;;;;;;;29.53;45.26;100513.28;5100312;28;767;-28
2021/06/27 12:23:16;;;;;;;;;;;;;;;29.37;45.81;100517.22;5099353;28;1075;-31
2021/06/27 12:25:43;;;;;;;;;;;;;;;29.28;45.98;100516.56;5099766;28;764;-31
2021/06/27 12:28:10;;;;;;;;;;;;;;;29.29;46.52;100514.69;5100061;28;870;-28
2021/06/27 12:30:36;;;;;;;;;;;;;;;29.39;46.66;100520.56;5099240;28;1018;-40
2021/06/27 12:33:02;;;;;;;;;;;;;;;29.31;46.62;100518.84;5099839;28;758;-31
2021/06/27 12:35:29;;;;;;;;;;;;;;;29.33;46.90;100524.06;5099659;28;1906;-34
2021/06/27 12:37:54;;;;;;;;;;;;;;;29.39;47.14;100525.97;5099670;28;724;-39
2021/06/27 12:40:19;;;;;;;;;;;;;;;29.45;47.01;100517.03;5099740;28;807;-30
2021/06/27 12:42:45;;;;;;;;;;;;;;;29.49;47.31;100517.47;5081761;28;788;-39
2021/06/27 12:45:14;;;;;;;;;;;;;;;29.43;47.68;100520.97;5098892;28;947;-35
2021/06/27 12:47:39;;;;;;;;;;;;;;;29.37;47.59;100516.38;5099768;28;823;-39
2021/06/27 12:50:05;;;;;;;;;;;;;;;29.37;47.61;100516.38;5099923;28;852;-40
2021/06/27 12:52:30;;;;;;;;;;;;;;;29.34;47.78;100526.56;5098955;28;728;-28
2021/06/27 12:54:55;;;;;;;;;;;;;;;29.41;47.45;100526.59;5099222;28;1901;-31